Time;durP1;ratioP1;P1;durP2;ratioP2;P2;SDS_P1;SDS_P2;PMS_P1;PMS_P2;Temp;Humidity;BMP_temperature;BMP_pressure;BME280_temperature;BME280_humidity;BME280_pressure;Samples;Min_cycle;Max_cycle;Signal;HPM_P1;HPM_P2
2020/12/23 00:00:08;;;;;;;20.10;16.33;;;;;;;7.93;95.29;98949.34;4977284;28;20120;-62
2020/12/23 00:02:33;;;;;;;25.43;18.60;;;;;;;7.81;94.99;98948.53;4978112;28;20026;-62
2020/12/23 00:04:59;;;;;;;20.90;15.03;;;;;;;7.82;95.06;98940.03;4978015;28;20026;-62
2020/12/23 00:07:24;;;;;;;23.53;16.03;;;;;;;7.74;95.88;98943.44;4977108;28;20027;-62
2020/12/23 00:09:49;;;;;;;20.63;14.43;;;;;;;7.74;95.18;98943.44;4977191;28;20081;-62
2020/12/23 00:12:15;;;;;;;18.97;14.70;;;;;;;7.77;95.39;98936.63;4976994;28;20097;-62
2020/12/23 00:14:40;;;;;;;24.77;17.07;;;;;;;7.74;95.77;98939.19;4977877;28;20093;-63
2020/12/23 00:17:06;;;;;;;20.40;16.93;;;;;;;7.68;95.61;98926.44;4975695;28;20022;-63
2020/12/23 00:19:33;;;;;;;24.37;19.60;;;;;;;7.64;95.13;98934.09;4978068;28;20074;-62
2020/12/23 00:21:59;;;;;;;20.97;18.03;;;;;;;7.54;95.20;98933.31;4976618;28;20133;-63
2020/12/23 00:24:24;;;;;;;20.67;15.93;;;;;;;7.58;96.73;98929.88;4977093;28;20404;-63
2020/12/23 00:26:49;;;;;;;26.23;16.53;;;;;;;7.74;97.90;98930.69;4977963;28;20347;-62
2020/12/23 00:29:15;;;;;;;20.73;14.90;;;;;;;7.70;97.57;98927.31;4976663;28;20075;-62
2020/12/23 00:31:40;;;;;;;15.67;12.83;;;;;;;7.60;97.21;98917.09;4977764;28;20105;-62
2020/12/23 00:34:06;;;;;;;15.83;13.80;;;;;;;7.47;96.63;98918.84;4959414;28;20360;-63
2020/12/23 00:36:32;;;;;;;17.70;12.90;;;;;;;7.37;96.66;98929.94;4976780;28;20054;-62
2020/12/23 00:38:58;;;;;;;18.57;12.57;;;;;;;7.42;96.40;98917.19;4977347;28;20651;-62
2020/12/23 00:41:23;;;;;;;15.70;13.10;;;;;;;7.34;96.71;98933.31;4969572;28;20046;-63
2020/12/23 00:43:48;;;;;;;16.00;14.33;;;;;;;7.54;97.45;98932.44;4973424;28;20019;-63
2020/12/23 00:46:14;;;;;;;16.23;14.27;;;;;;;7.57;97.41;98922.22;4973273;28;20360;-63
2020/12/23 00:48:40;;;;;;;16.23;12.27;;;;;;;7.58;96.42;98921.38;4972214;28;20022;-62
2020/12/23 00:51:08;;;;;;;18.40;11.93;;;;;;;7.53;96.36;98918.00;4968113;28;20031;-62
2020/12/23 00:53:33;;;;;;;17.40;11.37;;;;;;;7.40;96.22;98923.97;4970221;28;20148;-62
2020/12/23 00:55:59;;;;;;;13.47;11.13;;;;;;;7.32;96.87;98922.28;4975517;28;20459;-62
2020/12/23 00:58:24;;;;;;;11.87;10.70;;;;;;;7.24;96.29;98928.25;4974450;28;20041;-63
2020/12/23 01:00:49;;;;;;;11.77;10.57;;;;;;;7.20;96.23;98927.41;4975449;28;20030;-62
2020/12/23 01:03:15;;;;;;;15.10;10.20;;;;;;;7.19;96.37;98924.84;4975190;28;20027;-62
2020/12/23 01:05:40;;;;;;;12.40;9.63;;;;;;;7.06;95.77;98933.34;4976857;28;20031;-62
2020/12/23 01:08:06;;;;;;;10.90;9.23;;;;;;;7.02;96.34;98931.66;4975413;28;20054;-62
2020/12/23 01:10:31;;;;;;;12.30;10.17;;;;;;;7.03;96.26;98931.66;4976554;28;20031;-62
2020/12/23 01:12:57;;;;;;;12.50;9.87;;;;;;;7.09;96.22;98925.69;4971552;28;20039;-63
2020/12/23 01:15:22;;;;;;;13.63;9.23;;;;;;;7.06;96.53;98924.00;4957540;29;20051;-62
2020/12/23 01:17:47;;;;;;;11.20;9.50;;;;;;;7.04;96.79;98927.41;4957453;28;20046;-63
2020/12/23 01:20:13;;;;;;;14.00;10.47;;;;;;;6.96;96.16;98926.56;4976484;28;20043;-62
2020/12/23 01:22:38;;;;;;;12.13;9.00;;;;;;;7.04;96.61;98918.06;4974540;28;20043;-62
2020/12/23 01:25:04;;;;;;;13.87;9.30;;;;;;;7.06;96.83;98918.91;4956929;28;20336;-63
2020/12/23 01:27:29;;;;;;;14.20;9.20;;;;;;;7.04;96.81;98930.81;4955523;28;20054;-62
2020/12/23 01:29:54;;;;;;;11.23;8.67;;;;;;;6.98;96.67;98925.72;4976403;28;20031;-62
2020/12/23 01:32:20;;;;;;;13.40;10.93;;;;;;;7.04;97.16;98925.72;4975177;28;20498;-62
2020/12/23 01:34:45;;;;;;;12.17;8.83;;;;;;;7.03;96.73;98930.81;4957370;28;20090;-61
2020/12/23 01:37:10;;;;;;;11.10;8.33;;;;;;;7.03;96.66;98921.47;4955927;29;20058;-62
2020/12/23 01:39:36;;;;;;;12.37;8.63;;;;;;;7.04;96.36;98912.13;4962174;28;20106;-62
2020/12/23 01:42:01;;;;;;;16.20;9.00;;;;;;;7.02;96.04;98912.09;4955773;29;20023;-62
2020/12/23 01:44:27;;;;;;;12.63;9.33;;;;;;;6.92;95.84;98935.06;4953783;28;20056;-63
2020/12/23 01:46:52;;;;;;;13.73;9.10;;;;;;;6.92;95.71;98927.41;4956909;28;20034;-62
2020/12/23 01:49:19;;;;;;;11.20;8.60;;;;;;;6.88;96.01;98916.34;4940411;28;20034;-62
2020/12/23 01:51:45;;;;;;;11.63;9.33;;;;;;;6.79;96.18;98918.88;4974997;28;20352;-62
2020/12/23 01:54:14;;;;;;;9.90;8.53;;;;;;;6.77;95.66;98920.59;4975312;28;20118;-62
2020/12/23 01:56:45;;;;;;;10.33;7.20;;;;;;;6.85;95.86;98913.81;4975403;28;20056;-63
2020/12/23 01:59:11;;;;;;;9.60;7.60;;;;;;;6.73;95.84;98914.66;4961342;28;20110;-63
2020/12/23 02:01:47;;;;;;;8.00;7.20;;;;;;;6.75;95.97;98907.84;4965591;28;20110;-63
2020/12/23 02:04:16;;;;;;;8.90;7.80;;;;;;;6.67;96.05;98906.16;4975105;28;20089;-63
2020/12/23 02:06:42;;;;;;;13.23;8.70;;;;;;;6.50;95.88;98911.22;4974524;28;20054;-62
2020/12/23 02:09:08;;;;;;;9.27;7.73;;;;;;;6.67;95.77;98906.16;4975393;28;20358;-62
2020/12/23 02:11:34;;;;;;;8.63;7.73;;;;;;;6.67;95.76;98908.69;4974762;28;20030;-62
2020/12/23 02:13:59;;;;;;;13.30;8.83;;;;;;;6.65;96.21;98900.22;4974141;28;20038;-62
2020/12/23 02:16:25;;;;;;;10.77;8.00;;;;;;;6.64;95.79;98895.97;4975321;28;20448;-62
2020/12/23 02:18:50;;;;;;;18.60;11.23;;;;;;;6.53;96.64;98901.06;4974276;28;20076;-62
2020/12/23 02:21:16;;;;;;;14.53;9.90;;;;;;;6.63;96.47;98901.91;4974942;28;20491;-62
2020/12/23 02:23:42;;;;;;;14.80;10.57;;;;;;;6.68;96.61;98903.59;4974331;28;20049;-62
2020/12/23 02:26:07;;;;;;;16.93;10.13;;;;;;;6.80;97.11;98905.31;4975325;28;20165;-62
2020/12/23 02:28:33;;;;;;;20.03;11.20;;;;;;;6.95;97.62;98894.28;4973885;28;20121;-62
2020/12/23 02:31:03;;;;;;;17.83;10.97;;;;;;;7.11;96.96;98901.06;4975903;28;20396;-61
2020/12/23 02:33:29;;;;;;;16.97;10.37;;;;;;;7.21;96.99;98893.38;4973170;28;20046;-62
2020/12/23 02:35:54;;;;;;;13.77;9.00;;;;;;;7.23;97.24;98891.69;4975627;28;20026;-62
2020/12/23 02:38:19;;;;;;;16.17;11.57;;;;;;;7.21;97.52;98906.13;4974367;28;20034;-62
2020/12/23 02:40:45;;;;;;;14.93;9.90;;;;;;;7.30;97.47;98915.47;4972719;28;20037;-62
2020/12/23 02:43:10;;;;;;;15.73;10.17;;;;;;;7.43;97.06;98898.44;4974462;28;20037;-62
2020/12/23 02:45:36;;;;;;;10.30;8.23;;;;;;;7.53;97.62;98892.47;4974061;28;20034;-62
2020/12/23 02:48:02;;;;;;;12.40;8.80;;;;;;;7.59;97.39;98903.53;4974028;28;20035;-62
2020/12/23 02:50:27;;;;;;;11.10;8.60;;;;;;;7.60;96.51;98912.00;4974673;28;20030;-62
2020/12/23 02:52:52;;;;;;;12.10;7.57;;;;;;;7.59;96.62;98915.44;4973479;28;20022;-62
2020/12/23 02:55:18;;;;;;;11.43;8.03;;;;;;;7.60;97.06;98915.41;4958463;28;20085;-62
2020/12/23 02:57:43;;;;;;;8.10;6.17;;;;;;;7.63;96.85;98910.31;4956732;28;20037;-62
2020/12/23 03:00:09;;;;;;;9.00;6.10;;;;;;;7.63;96.76;98901.81;4973904;28;20113;-62
2020/12/23 03:02:34;;;;;;;9.37;5.23;;;;;;;7.65;97.00;98917.94;4974147;28;20106;-62
2020/12/23 03:05:00;;;;;;;8.73;6.13;;;;;;;7.88;97.85;98907.69;4973567;28;20021;-62
2020/12/23 03:07:26;;;;;;;10.53;6.43;;;;;;;7.85;97.51;98900.88;4959403;28;20460;-62
2020/12/23 03:09:51;;;;;;;9.47;5.50;;;;;;;7.93;97.82;98890.66;4972626;28;20030;-63
2020/12/23 03:12:16;;;;;;;8.70;6.40;;;;;;;7.83;97.67;98900.03;4974117;28;20034;-62
2020/12/23 03:14:42;;;;;;;10.13;5.90;;;;;;;7.76;97.71;98893.28;4953465;28;20027;-62
2020/12/23 03:17:07;;;;;;;6.87;5.40;;;;;;;7.68;96.71;98892.44;4968629;28;20093;-62
2020/12/23 03:19:33;;;;;;;7.60;6.30;;;;;;;7.68;97.29;98884.78;4969042;28;20050;-62
2020/12/23 03:21:58;;;;;;;10.27;6.07;;;;;;;7.77;97.79;98880.47;4960430;28;20074;-62
2020/12/23 03:24:23;;;;;;;7.47;4.80;;;;;;;7.84;98.48;98881.31;4966526;28;20333;-61
2020/12/23 03:26:49;;;;;;;6.43;3.70;;;;;;;8.01;99.28;98871.88;4964507;28;20027;-61
2020/12/23 03:29:14;;;;;;;5.33;3.70;;;;;;;8.05;99.22;98865.91;4941439;28;20027;-61
2020/12/23 03:31:40;;;;;;;5.63;3.83;;;;;;;8.09;99.15;98869.28;4968393;28;20371;-61
2020/12/23 03:34:06;;;;;;;6.03;3.17;;;;;;;8.26;99.64;98867.50;4961788;28;20041;-62
2020/12/23 03:36:32;;;;;;;3.80;3.37;;;;;;;8.31;99.57;98870.06;4944721;28;20046;-61
2020/12/23 03:38:57;;;;;;;3.90;2.83;;;;;;;8.28;99.67;98870.88;4967368;28;20023;-61
2020/12/23 03:41:23;;;;;;;3.23;2.90;;;;;;;8.30;99.18;98865.78;4962588;28;20050;-62
2020/12/23 03:43:48;;;;;;;4.73;2.87;;;;;;;8.34;99.20;98864.91;4963630;28;20089;-61
2020/12/23 03:46:14;;;;;;;3.80;2.77;;;;;;;8.33;98.99;98853.00;4962362;28;20099;-61
2020/12/23 03:48:39;;;;;;;3.77;2.53;;;;;;;8.39;98.94;98850.41;4962803;28;20448;-61
2020/12/23 03:51:04;;;;;;;3.57;2.40;;;;;;;8.42;99.06;98863.16;4969980;28;20035;-61
2020/12/23 03:53:30;;;;;;;4.97;2.57;;;;;;;8.47;98.67;98858.88;4971084;28;20085;-62
2020/12/23 03:55:56;;;;;;;5.47;2.93;;;;;;;8.48;98.59;98860.56;4967042;28;20063;-61
2020/12/23 03:58:21;;;;;;;2.70;2.20;;;;;;;8.52;98.52;98862.25;4967796;28;20074;-63
2020/12/23 04:00:46;;;;;;;2.60;1.97;;;;;;;8.49;98.06;98852.88;4970243;28;20082;-64
2020/12/23 04:03:12;;;;;;;4.03;2.37;;;;;;;8.50;97.39;98851.16;4965583;28;20054;-63
2020/12/23 04:05:38;;;;;;;3.17;2.10;;;;;;;8.48;97.52;98860.56;4974055;28;20037;-64
2020/12/23 04:08:05;;;;;;;2.33;1.80;;;;;;;8.50;97.32;98862.25;4970209;28;20026;-64
2020/12/23 04:10:30;;;;;;;5.90;2.23;;;;;;;8.53;97.14;98864.78;4969262;28;20102;-64
2020/12/23 04:12:56;;;;;;;2.10;1.80;;;;;;;8.56;96.72;98858.81;4966221;28;20104;-64
2020/12/23 04:15:21;;;;;;;2.40;2.07;;;;;;;8.52;96.92;98850.31;4964422;28;20034;-64
2020/12/23 04:17:47;;;;;;;2.97;1.70;;;;;;;8.46;96.90;98847.78;4962071;28;20359;-64
2020/12/23 04:20:12;;;;;;;2.07;1.87;;;;;;;8.49;97.78;98852.03;4961213;28;20035;-63
2020/12/23 04:22:38;;;;;;;1.73;1.63;;;;;;;8.44;97.50;98838.47;4964379;28;20113;-63
2020/12/23 04:25:05;;;;;;;3.23;1.63;;;;;;;8.45;96.96;98842.69;4963591;28;20019;-63
2020/12/23 04:27:33;;;;;;;1.87;1.40;;;;;;;8.28;97.13;98850.44;4975848;28;20082;-62
2020/12/23 04:29:58;;;;;;;3.23;1.33;;;;;;;8.20;97.08;98850.50;4971480;28;20027;-62
2020/12/23 04:32:24;;;;;;;2.17;1.97;;;;;;;8.04;95.87;98851.44;4969204;28;20027;-63
2020/12/23 04:34:49;;;;;;;4.20;3.00;;;;;;;7.94;96.25;98848.94;4964368;28;20035;-63
2020/12/23 04:37:15;;;;;;;3.87;3.47;;;;;;;7.84;96.68;98853.25;4972378;28;20179;-63
2020/12/23 04:39:40;;;;;;;3.80;3.40;;;;;;;7.71;96.30;98849.06;4975634;28;20026;-63
2020/12/23 04:42:06;;;;;;;4.80;4.00;;;;;;;7.66;96.34;98849.06;4966020;28;20104;-63
2020/12/23 04:44:32;;;;;;;5.57;3.70;;;;;;;7.51;96.10;98848.28;4977446;28;20054;-63
2020/12/23 04:46:58;;;;;;;5.37;3.90;;;;;;;7.46;95.59;98855.09;4974881;28;20027;-63
2020/12/23 04:49:24;;;;;;;4.80;3.63;;;;;;;7.32;95.56;98850.03;4977396;28;20193;-63
2020/12/23 04:51:54;;;;;;;5.13;4.00;;;;;;;7.28;95.75;98846.63;4973743;28;20098;-63
2020/12/23 04:54:20;;;;;;;4.47;2.73;;;;;;;7.15;95.63;98849.22;4957725;29;20034;-63
2020/12/23 04:56:46;;;;;;;4.73;2.97;;;;;;;7.08;95.99;98850.09;4956713;28;20031;-63
2020/12/23 04:59:12;;;;;;;3.10;2.60;;;;;;;6.98;95.70;98853.50;4977371;28;20356;-63
2020/12/23 05:01:37;;;;;;;4.20;2.63;;;;;;;6.87;95.83;98856.06;4976681;28;20026;-63
2020/12/23 05:04:03;;;;;;;3.00;2.70;;;;;;;6.79;95.65;98843.31;4976043;28;20030;-62
2020/12/23 05:06:28;;;;;;;3.40;2.57;;;;;;;6.71;95.88;98852.66;4975914;28;20030;-63
2020/12/23 05:08:54;;;;;;;3.07;2.70;;;;;;;6.66;95.95;98851.78;4976341;28;20033;-63
2020/12/23 05:11:19;;;;;;;9.40;8.40;;;;;;;6.65;95.94;98862.00;4975927;28;20503;-65
2020/12/23 05:13:45;;;;;;;10.87;7.07;;;;;;;6.56;95.77;98851.81;4975664;28;20038;-63
2020/12/23 05:16:12;;;;;;;7.77;5.53;;;;;;;6.60;96.12;98858.59;4976865;28;20105;-63
2020/12/23 05:18:40;;;;;;;11.87;6.10;;;;;;;6.60;96.10;98853.50;4963881;28;20027;-63
2020/12/23 05:21:16;;;;;;;8.50;5.90;;;;;;;6.53;95.82;98845.03;4972420;28;20055;-63
2020/12/23 05:23:44;;;;;;;9.63;7.50;;;;;;;6.47;96.29;98859.44;4974668;28;20019;-63
2020/12/23 05:26:10;;;;;;;11.10;7.30;;;;;;;6.40;96.31;98849.25;4975369;28;20018;-63
2020/12/23 05:28:37;;;;;;;12.17;7.93;;;;;;;6.41;96.44;98850.94;4975040;28;20041;-62
2020/12/23 05:31:04;;;;;;;11.77;7.33;;;;;;;6.40;96.23;98845.88;4976123;28;20467;-62
2020/12/23 05:33:39;;;;;;;7.17;6.43;;;;;;;6.41;96.40;98840.75;4974820;28;20026;-62
2020/12/23 05:36:06;;;;;;;6.72;4.30;;;;;;;6.35;96.28;98840.75;4976140;28;20029;-63
2020/12/23 05:38:32;;;;;;;6.00;4.10;;;;;;;6.31;96.66;98848.41;4974963;28;20034;-63
2020/12/23 05:41:00;;;;;;;5.10;4.23;;;;;;;6.27;96.64;98845.00;4975803;28;20039;-63
2020/12/23 05:43:26;;;;;;;8.40;4.80;;;;;;;6.22;96.60;98836.50;4974574;28;20062;-63
2020/12/23 05:45:56;;;;;;;7.80;5.57;;;;;;;6.24;96.49;98833.94;4975454;28;20031;-63
2020/12/23 05:48:21;;;;;;;13.87;8.60;;;;;;;6.15;96.22;98821.22;4957743;28;20034;-63
2020/12/23 05:50:47;;;;;;;17.87;8.60;;;;;;;6.17;96.70;98815.28;4975932;28;20474;-63
2020/12/23 05:53:17;;;;;;;14.67;8.30;;;;;;;6.28;97.39;98821.22;4973825;28;20125;-63
2020/12/23 05:55:50;;;;;;;8.53;7.07;;;;;;;6.30;96.73;98818.69;4975501;28;20030;-62
2020/12/23 05:58:29;;;;;;;9.57;6.97;;;;;;;6.32;96.71;98820.38;4974189;28;20034;-63
2020/12/23 06:00:57;;;;;;;13.07;6.37;;;;;;;6.32;97.44;98822.09;4974020;28;20039;-63
2020/12/23 06:03:50;;;;;;;24.80;12.37;;;;;;;6.55;97.59;98819.53;4974614;28;20120;-63
2020/12/23 06:06:22;;;;;;;45.13;21.87;;;;;;;6.70;98.03;98825.50;4974275;28;20054;-62
2020/12/23 06:08:51;;;;;;;39.67;18.43;;;;;;;6.76;97.84;98810.19;4975600;28;20113;-62
2020/12/23 06:11:27;;;;;;;32.90;16.20;;;;;;;6.64;98.16;98812.75;4973548;28;20416;-62
2020/12/23 06:14:09;;;;;;;288.00;121.00;;;;;;;6.73;97.54;98797.47;4974900;28;20063;-62
2020/12/23 06:16:39;;;;;;;100.80;62.50;;;;;;;6.72;98.30;98794.91;4974202;28;20045;-61
2020/12/23 06:19:19;;;;;;;74.63;50.77;;;;;;;6.69;98.29;98789.81;4975707;28;20030;-62
2020/12/23 06:21:45;;;;;;;42.30;31.83;;;;;;;6.59;98.01;98799.16;4954912;28;20059;-62
2020/12/23 06:24:13;;;;;;;17.57;13.33;;;;;;;6.70;98.04;98794.06;4955359;29;20035;-62
2020/12/23 06:26:40;;;;;;;12.87;8.30;;;;;;;6.74;97.65;98803.41;4962322;28;20026;-63
2020/12/23 06:29:09;;;;;;;26.77;17.30;;;;;;;6.67;97.42;98830.56;4975011;28;20469;-63
2020/12/23 06:31:45;;;;;;;22.57;13.93;;;;;;;6.65;97.16;98831.44;4974162;28;20052;-63
2020/12/23 06:34:25;;;;;;;19.90;14.13;;;;;;;6.56;96.90;98839.94;4974639;28;20462;-63
2020/12/23 06:36:52;;;;;;;17.33;11.97;;;;;;;6.42;96.47;98851.78;4956867;28;20056;-62
2020/12/23 06:39:40;;;;;;;23.20;14.23;;;;;;;6.41;97.13;98848.38;4974785;28;20118;-63
2020/12/23 06:42:06;;;;;;;20.80;13.67;;;;;;;6.28;97.35;98856.84;4956515;28;20042;-61
2020/12/23 06:44:43;;;;;;;18.27;13.40;;;;;;;6.34;96.54;98861.13;4974365;28;20321;-63
2020/12/23 06:47:19;;;;;;;20.83;15.23;;;;;;;6.29;96.63;98855.16;4962535;28;20033;-63
2020/12/23 06:49:47;;;;;;;20.77;14.83;;;;;;;6.20;97.00;98853.44;4957493;28;20089;-61
2020/12/23 06:52:21;;;;;;;20.00;14.83;;;;;;;6.20;96.72;98856.00;4973055;28;20058;-61
2020/12/23 06:54:50;;;;;;;17.30;12.73;;;;;;;6.04;96.74;98858.50;4974775;28;20455;-61
2020/12/23 06:57:37;;;;;;;19.13;14.40;;;;;;;6.14;96.75;98865.31;4966354;28;20035;-62
2020/12/23 07:00:20;;;;;;;18.97;12.30;;;;;;;6.11;96.57;98857.69;4955257;29;20035;-62
2020/12/23 07:03:01;;;;;;;20.13;12.43;;;;;;;6.09;96.73;98860.22;4965231;28;20030;-62
2020/12/23 07:05:26;;;;;;;14.90;10.97;;;;;;;6.02;96.88;98852.59;4957510;28;20448;-62
2020/12/23 07:07:53;;;;;;;16.90;11.20;;;;;;;6.09;97.23;98837.31;4973719;28;20034;-62
2020/12/23 07:10:29;;;;;;;25.43;12.87;;;;;;;6.19;97.30;98841.59;4974551;28;20035;-62
2020/12/23 07:13:08;;;;;;;18.00;14.07;;;;;;;6.33;97.71;98837.34;4973587;28;20053;-62
2020/12/23 07:15:38;;;;;;;23.07;15.20;;;;;;;6.41;97.87;98832.25;4975199;28;20031;-62
2020/12/23 07:18:11;;;;;;;20.47;15.37;;;;;;;6.52;98.26;98842.47;4973547;28;20058;-63
2020/12/23 07:20:45;;;;;;;27.40;19.43;;;;;;;6.69;98.75;98830.59;4977039;28;20039;-63
2020/12/23 07:23:13;;;;;;;30.77;19.37;;;;;;;6.71;98.44;98831.41;4977179;28;20412;-61
2020/12/23 07:25:42;;;;;;;27.63;17.63;;;;;;;6.73;98.34;98829.72;4978523;28;20022;-62
2020/12/23 07:28:09;;;;;;;19.60;13.93;;;;;;;6.88;98.35;98827.16;4966464;28;20355;-61
2020/12/23 07:30:37;;;;;;;18.17;12.33;;;;;;;6.96;97.62;98816.97;4974244;28;20356;-62
2020/12/23 07:33:16;;;;;;;21.50;10.60;;;;;;;7.01;96.69;98830.53;4967013;28;20023;-62
2020/12/23 07:35:50;;;;;;;17.97;8.60;;;;;;;7.01;96.81;98826.28;4967380;28;20027;-62
2020/12/23 07:38:16;;;;;;;14.87;8.03;;;;;;;7.01;96.84;98836.47;4964637;28;20105;-61
2020/12/23 07:40:42;;;;;;;17.17;9.07;;;;;;;7.03;96.19;98829.69;4962396;28;20031;-61
2020/12/23 07:43:08;;;;;;;21.97;9.97;;;;;;;7.30;95.72;98828.75;4960897;28;20042;-61
2020/12/23 07:45:35;;;;;;;21.50;10.73;;;;;;;7.35;95.09;98827.91;4965924;28;20083;-62
2020/12/23 07:48:11;;;;;;;16.20;10.30;;;;;;;7.42;94.92;98836.41;4978235;28;20027;-62
2020/12/23 07:50:45;;;;;;;20.23;13.33;;;;;;;7.36;94.19;98836.41;4977157;28;20026;-61
2020/12/23 07:53:18;;;;;;;20.93;14.43;;;;;;;7.46;94.90;98842.34;4977422;28;20110;-63
2020/12/23 07:55:49;;;;;;;19.57;15.13;;;;;;;7.48;95.36;98843.16;4976724;28;20034;-62
2020/12/23 07:58:15;;;;;;;21.60;16.43;;;;;;;7.43;95.20;98837.22;4977630;28;20085;-62
2020/12/23 08:00:44;;;;;;;23.10;16.37;;;;;;;7.49;95.32;98844.88;4968950;28;20039;-62
2020/12/23 08:03:10;;;;;;;22.07;15.60;;;;;;;7.48;95.55;98843.16;4957633;29;20595;-62
2020/12/23 08:05:36;;;;;;;20.73;13.93;;;;;;;7.55;95.29;98837.22;4945892;28;20027;-62
2020/12/23 08:08:02;;;;;;;18.73;13.57;;;;;;;7.63;95.97;98840.56;4977236;28;20448;-62
2020/12/23 08:10:27;;;;;;;19.83;12.90;;;;;;;7.63;95.46;98853.34;4976230;28;20042;-62
2020/12/23 08:13:04;;;;;;;13.87;12.37;;;;;;;7.74;95.65;98849.03;4977939;28;20151;-62
2020/12/23 08:15:30;;;;;;;16.27;10.83;;;;;;;7.80;95.34;98839.66;4976299;28;20034;-62
2020/12/23 08:18:02;;;;;;;16.50;12.87;;;;;;;7.90;95.86;98834.47;4978215;28;20035;-62
2020/12/23 08:20:28;;;;;;;18.67;11.63;;;;;;;7.95;95.30;98837.88;4973412;28;20034;-62
2020/12/23 08:22:54;;;;;;;12.83;11.07;;;;;;;8.05;96.03;98831.88;4976380;28;20434;-60
2020/12/23 08:25:22;;;;;;;22.50;15.50;;;;;;;8.14;95.82;98822.44;4976396;28;20460;-60
2020/12/23 08:27:52;;;;;;;18.77;13.90;;;;;;;8.25;96.36;98815.56;4977074;28;20065;-60
2020/12/23 08:30:23;;;;;;;17.27;12.07;;;;;;;8.20;95.05;98807.06;4972116;28;20082;-60
2020/12/23 08:32:51;;;;;;;17.37;12.30;;;;;;;8.33;95.32;98799.34;4957143;28;20090;-60
2020/12/23 08:35:18;;;;;;;20.50;14.27;;;;;;;8.38;95.11;98793.34;4958230;28;20031;-60
2020/12/23 08:37:43;;;;;;;22.73;16.97;;;;;;;8.40;95.02;98806.94;4977588;28;20415;-60
2020/12/23 08:40:08;;;;;;;21.23;16.20;;;;;;;8.47;94.75;98807.78;4975460;28;20030;-60
2020/12/23 08:42:34;;;;;;;17.97;13.57;;;;;;;8.55;94.59;98806.84;4977297;28;20096;-60
2020/12/23 08:45:00;;;;;;;17.30;11.90;;;;;;;8.61;94.57;98814.44;4976443;28;20082;-60
2020/12/23 08:47:29;;;;;;;9.43;7.67;;;;;;;8.72;94.04;98819.47;4976686;28;20065;-60
2020/12/23 08:49:55;;;;;;;10.23;7.33;;;;;;;8.78;93.76;98816.88;4976152;28;20087;-61
2020/12/23 08:52:22;;;;;;;26.70;14.40;;;;;;;8.78;92.98;98816.03;4958191;28;20444;-61
2020/12/23 08:54:49;;;;;;;19.87;11.53;;;;;;;8.76;92.65;98808.38;4961958;28;20023;-61
2020/12/23 08:57:19;;;;;;;11.97;8.47;;;;;;;8.81;92.32;98809.19;4974073;28;20058;-61
2020/12/23 08:59:45;;;;;;;8.23;5.87;;;;;;;8.88;92.06;98820.19;4971508;28;20030;-61
2020/12/23 09:02:14;;;;;;;6.43;5.67;;;;;;;8.97;92.37;98826.06;4976146;28;20035;-61
2020/12/23 09:04:40;;;;;;;10.10;7.43;;;;;;;8.95;92.00;98820.13;4976180;28;20356;-61
2020/12/23 09:07:06;;;;;;;10.43;6.30;;;;;;;8.95;92.87;98811.63;4972400;28;20419;-61
2020/12/23 09:09:33;;;;;;;14.17;9.27;;;;;;;8.93;91.91;98808.22;4973653;28;20391;-60
2020/12/23 09:11:58;;;;;;;12.87;11.13;;;;;;;8.99;92.75;98800.50;4975894;28;20031;-60
2020/12/23 09:14:30;;;;;;;17.90;14.80;;;;;;;9.08;92.34;98801.22;4972717;28;20459;-61
2020/12/23 09:16:59;;;;;;;24.40;15.40;;;;;;;9.14;91.25;98801.19;4967272;28;20375;-60
2020/12/23 09:19:50;;;;;;;33.40;20.05;;;;;;;9.20;91.47;98796.88;4974741;28;20030;-60
2020/12/23 09:22:28;;;;;;;65.87;31.07;;;;;;;9.24;91.31;98790.84;4975215;28;20514;-61
2020/12/23 09:25:19;;;;;;;78.07;34.23;;;;;;;9.29;91.77;98792.50;4972230;28;20110;-61
2020/12/23 09:27:46;;;;;;;88.17;40.23;;;;;;;9.39;90.95;98788.09;4935091;28;20047;-61
2020/12/23 09:30:12;;;;;;;53.30;29.00;;;;;;;9.29;90.78;98783.97;4975719;28;20096;-61
2020/12/23 09:32:51;;;;;;;50.13;27.03;;;;;;;9.44;91.10;98784.63;4975500;28;20515;-61
2020/12/23 09:35:20;;;;;;;57.77;28.07;;;;;;;9.48;91.34;98776.06;4963118;28;20320;-60
2020/12/23 09:37:47;;;;;;;38.63;19.92;;;;;;;9.58;91.29;98777.66;4958421;28;20065;-60
2020/12/23 09:40:14;;;;;;;28.97;13.60;;;;;;;9.69;90.22;98774.94;4968553;28;20073;-61
2020/12/23 09:42:39;;;;;;;23.90;12.55;;;;;;;9.73;89.99;98771.47;4974726;28;20079;-60
2020/12/23 09:45:07;;;;;;;16.13;9.75;;;;;;;9.80;89.46;98755.13;4975011;28;20050;-60
2020/12/23 09:47:33;;;;;;;15.82;10.07;;;;;;;9.79;89.39;98753.47;4975036;28;20030;-61
2020/12/23 09:50:02;;;;;;;13.52;9.20;;;;;;;9.76;89.45;98748.38;4966447;28;20057;-60
2020/12/23 09:52:28;;;;;;;13.18;10.00;;;;;;;9.68;89.65;98750.19;4946173;29;20100;-61
2020/12/23 09:54:53;;;;;;;12.88;9.23;;;;;;;9.69;90.08;98754.44;4956271;29;20121;-61
2020/12/23 09:57:19;;;;;;;15.43;10.82;;;;;;;9.66;90.22;98741.69;4955045;28;20046;-61
2020/12/23 09:59:44;;;;;;;16.80;12.23;;;;;;;9.76;90.04;98735.56;4976111;28;20041;-60
2020/12/23 10:02:09;;;;;;;20.70;13.73;;;;;;;9.79;90.41;98732.97;4975508;28;20034;-60
2020/12/23 10:04:35;;;;;;;18.42;9.95;;;;;;;9.76;89.30;98738.13;4957549;28;20396;-61
2020/12/23 10:07:00;;;;;;;16.23;10.25;;;;;;;9.80;89.82;98744.91;4955224;28;20027;-61
2020/12/23 10:09:26;;;;;;;13.05;9.50;;;;;;;9.74;90.10;98734.75;4956783;28;20043;-61
2020/12/23 10:11:51;;;;;;;13.52;9.52;;;;;;;9.74;89.73;98733.91;4955638;29;20035;-61
2020/12/23 10:14:16;;;;;;;14.77;10.05;;;;;;;9.75;90.29;98718.53;4966087;28;20030;-61
2020/12/23 10:16:42;;;;;;;16.17;11.80;;;;;;;9.71;90.17;98716.88;4976185;28;20027;-62
2020/12/23 10:19:07;;;;;;;13.75;10.25;;;;;;;9.73;90.45;98712.56;4974329;28;20439;-62
2020/12/23 10:21:33;;;;;;;24.75;16.23;;;;;;;9.79;90.10;98701.41;4975558;28;20066;-61
2020/12/23 10:23:58;;;;;;;26.90;19.13;;;;;;;9.88;90.63;98703.84;4974412;28;20046;-60
2020/12/23 10:26:23;;;;;;;25.55;17.25;;;;;;;9.96;90.21;98699.44;4975628;28;20065;-61
2020/12/23 10:28:49;;;;;;;22.08;14.85;;;;;;;9.96;89.80;98690.06;4973187;28;20129;-61
2020/12/23 10:31:14;;;;;;;20.20;14.18;;;;;;;9.87;89.86;98695.31;4973892;28;20031;-61
2020/12/23 10:33:40;;;;;;;18.50;13.85;;;;;;;9.87;90.74;98694.47;4972297;28;20419;-61
2020/12/23 10:36:12;;;;;;;20.65;13.40;;;;;;;9.91;90.17;98686.72;4974831;28;20037;-62
2020/12/23 10:38:40;;;;;;;19.92;16.17;;;;;;;9.94;90.83;98683.25;4973496;28;20113;-61
2020/12/23 10:41:05;;;;;;;18.90;14.60;;;;;;;9.95;90.61;98674.69;4974587;28;20031;-61
2020/12/23 10:43:30;;;;;;;16.88;12.82;;;;;;;9.96;90.11;98671.28;4972693;28;20448;-61
2020/12/23 10:45:56;;;;;;;15.52;12.30;;;;;;;9.98;89.97;98664.41;4974721;28;20030;-60
2020/12/23 10:48:21;;;;;;;14.77;12.18;;;;;;;9.95;89.66;98661.88;4972837;28;20388;-60
2020/12/23 10:50:46;;;;;;;15.70;13.57;;;;;;;9.97;89.96;98665.28;4974426;28;20512;-61
2020/12/23 10:53:12;;;;;;;25.67;17.60;;;;;;;9.95;90.02;98662.75;4972249;28;20130;-61
2020/12/23 10:55:37;;;;;;;38.65;23.38;;;;;;;9.97;89.92;98660.97;4976793;28;20046;-60
2020/12/23 10:58:03;;;;;;;46.75;25.50;;;;;;;10.05;89.45;98654.06;4977302;28;20038;-60
2020/12/23 11:00:29;;;;;;;25.25;16.88;;;;;;;10.03;89.83;98662.63;4976992;28;20030;-61
2020/12/23 11:02:55;;;;;;;16.30;11.52;;;;;;;10.02;90.07;98664.31;4976938;28;20035;-62
2020/12/23 11:05:21;;;;;;;17.98;11.90;;;;;;;10.14;89.73;98654.75;4977474;28;20110;-60
2020/12/23 11:07:46;;;;;;;15.20;12.60;;;;;;;10.15;89.43;98659.88;4977105;28;20178;-60
2020/12/23 11:10:13;;;;;;;16.15;11.82;;;;;;;10.20;89.61;98652.13;4978024;28;20161;-60
2020/12/23 11:12:39;;;;;;;15.88;11.45;;;;;;;10.25;89.15;98647.75;4977113;28;20082;-62
2020/12/23 11:15:04;;;;;;;16.17;10.32;;;;;;;10.31;88.53;98650.22;4977763;28;20468;-61
2020/12/23 11:17:30;;;;;;;9.95;8.65;;;;;;;10.39;88.78;98651.78;4977887;28;20030;-61
2020/12/23 11:19:55;;;;;;;17.35;8.68;;;;;;;10.49;88.20;98650.72;4978080;28;20121;-61
2020/12/23 11:22:21;;;;;;;12.65;7.78;;;;;;;10.54;87.89;98643.81;4976872;28;20070;-61
2020/12/23 11:24:47;;;;;;;13.55;8.73;;;;;;;10.50;88.17;98649.88;4972956;28;20034;-61
2020/12/23 11:27:15;;;;;;;11.00;9.85;;;;;;;10.56;87.58;98651.47;4972810;28;20438;-61
2020/12/23 11:29:40;;;;;;;16.92;10.32;;;;;;;10.61;87.52;98649.66;4957431;28;20089;-61
2020/12/23 11:32:05;;;;;;;12.63;9.70;;;;;;;10.63;88.25;98647.91;4975040;28;20113;-62